createdAt,value
2023-01-13T00:02:55.616Z,3.13
2023-01-13T00:07:58.877Z,2.90
2023-01-13T00:13:01.012Z,1.40
2023-01-13T00:18:02.917Z,2.30
2023-01-13T00:23:06.212Z,1.50
2023-01-13T00:28:10.121Z,2.97
2023-01-13T00:33:12.027Z,1.17
2023-01-13T00:38:15.222Z,1.10
2023-01-13T00:43:22.845Z,1.07
2023-01-13T00:48:24.744Z,1.03
2023-01-13T00:53:28.189Z,0.60
2023-01-13T00:58:31.601Z,0.80
2023-01-13T01:03:33.701Z,3.53
2023-01-13T01:08:36.993Z,1.37
2023-01-13T01:13:38.894Z,0.60
2023-01-13T01:18:41.722Z,0.60
2023-01-13T01:23:45.120Z,0.50
2023-01-13T01:28:47.229Z,0.60
2023-01-13T01:33:49.338Z,0.80
2023-01-13T01:38:52.536Z,0.40
2023-01-13T01:44:04.484Z,1.37
2023-01-13T01:49:13.048Z,0.53
2023-01-13T01:54:20.461Z,1.00
2023-01-13T01:59:22.444Z,1.20
2023-01-13T02:04:26.107Z,0.60
2023-01-13T02:09:29.365Z,1.00
2023-01-13T02:14:31.264Z,0.70
2023-01-13T02:20:24.593Z,0.70
2023-01-13T02:25:48.674Z,3.80
2023-01-13T02:31:11.462Z,0.70
2023-01-13T02:36:18.151Z,1.33
2023-01-13T02:41:43.854Z,0.70
2023-01-13T02:46:54.101Z,0.93
2023-01-13T02:51:59.551Z,1.23
2023-01-13T02:57:01.427Z,0.80
2023-01-13T03:02:04.528Z,0.70
2023-01-13T03:07:08.584Z,0.53
2023-01-13T03:12:13.861Z,1.00
2023-01-13T03:17:21.232Z,2.10
2023-01-13T03:22:24.446Z,1.70
2023-01-13T03:27:27.892Z,4.57
2023-01-13T03:32:32.502Z,5.40
2023-01-13T03:37:35.052Z,2.17
2023-01-13T03:42:37.074Z,3.23
2023-01-13T03:47:41.498Z,3.60
2023-01-13T03:52:44.838Z,3.97
2023-01-13T03:57:48.378Z,8.13
2023-01-13T04:02:52.572Z,11.50
2023-01-13T04:07:56.534Z,10.20
2023-01-13T04:13:02.676Z,6.80
2023-01-13T04:18:14.639Z,7.00
2023-01-13T04:23:16.582Z,11.30
2023-01-13T04:28:18.343Z,11.40
2023-01-13T04:33:21.301Z,15.07
2023-01-13T04:38:23.209Z,13.53
2023-01-13T04:43:24.857Z,12.37
2023-01-13T04:48:27.876Z,14.50
2023-01-13T04:53:29.520Z,14.50
2023-01-13T04:58:31.160Z,12.00
2023-01-13T05:03:34.188Z,11.10
2023-01-13T05:08:35.894Z,17.60
2023-01-13T05:13:56.133Z,12.80
2023-01-13T05:18:59.162Z,19.70
2023-01-13T05:24:19.465Z,11.13
2023-01-13T05:29:21.110Z,15.50
2023-01-13T05:34:24.271Z,17.67
2023-01-13T05:39:26.855Z,9.77
2023-01-13T05:44:47.727Z,10.60
2023-01-13T05:49:49.619Z,16.43
2023-01-13T05:54:51.282Z,17.83
2023-01-13T05:59:54.304Z,8.80
2023-01-13T06:04:56.006Z,9.63
2023-01-13T06:09:57.679Z,10.03
2023-01-13T06:15:00.712Z,16.33
2023-01-13T06:20:02.355Z,16.03
2023-01-13T06:25:04.636Z,17.73
2023-01-13T06:30:10.721Z,15.57
2023-01-13T06:35:14.360Z,9.83
2023-01-13T06:40:16.480Z,14.20
2023-01-13T06:45:19.610Z,11.43
2023-01-13T06:50:21.291Z,11.07
2023-01-13T06:55:22.901Z,15.10
2023-01-13T07:00:26.776Z,15.17
2023-01-13T07:05:28.443Z,17.30
2023-01-13T07:10:30.271Z,16.90
2023-01-13T07:15:33.659Z,13.83
2023-01-13T07:20:35.317Z,13.13
2023-01-13T07:25:36.979Z,15.17
2023-01-13T07:30:39.989Z,10.57
2023-01-13T07:35:41.661Z,13.83
2023-01-13T07:40:43.336Z,8.90
2023-01-13T07:45:46.358Z,12.30
2023-01-13T07:50:48.069Z,14.10
2023-01-13T07:55:49.820Z,16.70
2023-01-13T08:00:53.011Z,12.60
2023-01-13T08:05:54.757Z,8.60
2023-01-13T08:10:58.798Z,12.03
2023-01-13T08:16:03.304Z,13.23
2023-01-13T08:21:06.003Z,8.37
2023-01-13T08:26:09.002Z,11.33
2023-01-13T08:31:13.569Z,6.90
2023-01-13T08:36:15.311Z,13.97
2023-01-13T08:41:36.928Z,14.77
2023-01-13T08:46:41.133Z,12.07
2023-01-13T08:51:42.767Z,8.80
2023-01-13T08:56:46.137Z,11.67
2023-01-13T09:01:49.392Z,9.57
2023-01-13T09:06:51.158Z,17.97
2023-01-13T09:12:11.454Z,12.20
2023-01-13T09:17:14.788Z,8.07
2023-01-13T09:22:17.407Z,7.00
2023-01-13T09:27:19.170Z,13.60
2023-01-13T09:32:22.202Z,8.97
2023-01-13T09:37:23.877Z,8.97
2023-01-13T09:42:49.673Z,9.77
2023-01-13T09:47:56.522Z,17.23
2023-01-13T09:52:58.543Z,10.27
2023-01-13T09:58:01.230Z,12.90
2023-01-13T10:03:12.922Z,11.73
2023-01-13T10:08:16.472Z,11.17
2023-01-13T10:13:19.971Z,9.13
2023-01-13T10:18:24.055Z,9.50
2023-01-13T10:23:39.046Z,10.03
2023-01-13T10:28:40.682Z,8.13
2023-01-13T10:33:43.645Z,13.00
2023-01-13T10:38:46.009Z,15.20
2023-01-13T10:43:58.118Z,11.23
2023-01-13T10:49:01.703Z,11.57
2023-01-13T10:54:14.122Z,15.63
2023-01-13T10:59:18.535Z,15.33
2023-01-13T11:04:32.754Z,15.00
2023-01-13T11:09:34.546Z,20.50
2023-01-13T11:14:39.402Z,13.50
2023-01-13T11:19:43.859Z,12.47
2023-01-13T11:24:46.327Z,8.63
2023-01-13T11:29:57.578Z,16.93
2023-01-13T11:35:02.162Z,12.50
2023-01-13T11:40:05.701Z,8.77
2023-01-13T11:45:16.867Z,13.27
2023-01-13T11:50:24.778Z,12.87
2023-01-13T11:55:31.024Z,11.93
2023-01-13T12:00:38.449Z,11.13
2023-01-13T12:05:42.369Z,11.83
2023-01-13T12:10:50.459Z,10.00
2023-01-13T12:16:14.800Z,15.73
2023-01-13T12:21:20.577Z,7.30
2023-01-13T12:26:22.309Z,14.53
2023-01-13T12:31:24.149Z,16.53
2023-01-13T12:36:29.413Z,10.67
2023-01-13T12:41:36.757Z,12.90
2023-01-13T12:46:53.051Z,24.03
2023-01-13T12:52:11.012Z,9.57
2023-01-13T12:57:14.925Z,14.43
2023-01-13T13:02:31.146Z,7.23
2023-01-13T13:07:38.919Z,14.63
2023-01-13T13:13:15.902Z,8.83
2023-01-13T13:18:28.351Z,12.47
2023-01-13T13:23:48.196Z,12.53
2023-01-13T13:28:56.877Z,17.33
2023-01-13T13:34:07.993Z,19.50
2023-01-13T13:39:38.951Z,14.53
2023-01-13T13:45:01.619Z,9.93
2023-01-13T13:50:06.201Z,13.47
2023-01-13T13:55:23.225Z,10.90
2023-01-13T14:00:26.293Z,14.83
2023-01-13T14:05:28.808Z,13.93
2023-01-13T14:10:33.103Z,11.60
2023-01-13T14:15:35.923Z,13.80
2023-01-13T14:20:37.631Z,10.30
2023-01-13T14:25:46.528Z,15.20
2023-01-13T14:30:49.841Z,13.97
2023-01-13T14:36:14.886Z,12.63
2023-01-13T14:41:20.766Z,19.80
2023-01-13T14:46:25.064Z,9.33
2023-01-13T14:51:27.406Z,10.43
2023-01-13T14:56:53.669Z,16.97
2023-01-13T15:01:55.513Z,29.23
2023-01-13T15:06:57.731Z,25.47
2023-01-13T15:12:00.737Z,23.87
2023-01-13T15:17:03.242Z,14.40
2023-01-13T15:22:04.879Z,13.50
2023-01-13T15:27:15.422Z,12.97
2023-01-13T15:32:17.882Z,18.67
2023-01-13T15:37:19.631Z,12.03
2023-01-13T15:42:43.365Z,14.20
2023-01-13T15:47:44.993Z,10.47
2023-01-13T15:52:46.668Z,15.40
2023-01-13T15:57:49.847Z,10.27
2023-01-13T16:02:51.559Z,12.07
2023-01-13T16:07:53.451Z,14.00
2023-01-13T16:12:56.464Z,8.33
2023-01-13T16:17:59.713Z,11.67
2023-01-13T16:23:01.377Z,11.60
2023-01-13T16:28:04.367Z,10.90
2023-01-13T16:33:05.995Z,29.63
2023-01-13T16:38:10.635Z,21.97
2023-01-13T16:43:13.752Z,40.70
2023-01-13T16:48:18.451Z,24.90
2023-01-13T16:53:20.160Z,19.17
2023-01-13T16:58:23.357Z,15.03
2023-01-13T17:03:25.050Z,17.40
2023-01-13T17:08:26.854Z,14.03
2023-01-13T17:13:29.840Z,10.37
2023-01-13T17:18:31.538Z,13.07
2023-01-13T17:23:33.435Z,6.47
2023-01-13T17:28:36.473Z,8.73
2023-01-13T17:33:38.144Z,7.87
2023-01-13T17:38:39.804Z,15.43
2023-01-13T17:43:42.856Z,20.23
2023-01-13T17:48:44.485Z,19.40
2023-01-13T17:53:46.194Z,14.20
2023-01-13T17:58:49.296Z,13.20
2023-01-13T18:03:51.352Z,13.57
2023-01-13T18:08:53.081Z,18.80
2023-01-13T18:14:00.118Z,5.63
2023-01-13T18:19:20.516Z,6.47
2023-01-13T18:24:40.923Z,9.80
2023-01-13T18:29:44.024Z,7.90
2023-01-13T18:34:45.834Z,8.60
2023-01-13T18:39:47.531Z,7.70
2023-01-13T18:44:53.225Z,6.77
2023-01-13T18:49:54.981Z,11.10
2023-01-13T18:54:56.709Z,5.13
2023-01-13T18:59:59.774Z,6.03
2023-01-13T19:05:01.545Z,10.63
2023-01-13T19:10:04.262Z,10.73
2023-01-13T19:15:08.901Z,10.13
2023-01-13T19:20:11.665Z,7.57
2023-01-13T19:25:13.363Z,7.90
2023-01-13T19:30:17.360Z,5.97
2023-01-13T19:35:19.996Z,15.53
2023-01-13T19:40:22.350Z,15.13
2023-01-13T19:45:28.980Z,9.47
2023-01-13T19:50:30.704Z,9.47
2023-01-13T19:55:32.478Z,10.47
2023-01-13T20:00:35.496Z,11.73
2023-01-13T20:05:37.188Z,15.30
2023-01-13T20:10:38.915Z,10.30
2023-01-13T20:15:42.107Z,9.30
2023-01-13T20:20:43.873Z,9.83
2023-01-13T20:25:45.608Z,8.53
2023-01-13T20:30:49.622Z,8.33
2023-01-13T20:35:56.813Z,5.13
2023-01-13T20:40:58.729Z,7.03
2023-01-13T20:46:03.409Z,17.23
2023-01-13T20:51:05.195Z,12.77
2023-01-13T20:56:07.630Z,5.63
2023-01-13T21:01:10.962Z,9.07
2023-01-13T21:06:12.995Z,9.00
2023-01-13T21:11:17.244Z,11.10
2023-01-13T21:16:20.399Z,11.93
2023-01-13T21:21:22.203Z,8.20
2023-01-13T21:26:24.154Z,6.67
2023-01-13T21:31:27.291Z,8.47
2023-01-13T21:36:29.116Z,6.57
2023-01-13T21:41:49.275Z,3.03
2023-01-13T21:47:10.681Z,3.23
2023-01-13T21:52:12.481Z,3.83
2023-01-13T21:57:14.428Z,7.50
2023-01-13T22:02:31.721Z,5.23
2023-01-13T22:07:33.864Z,6.03
2023-01-13T22:12:35.887Z,6.53
2023-01-13T22:17:40.028Z,7.37
2023-01-13T22:22:41.723Z,4.07
2023-01-13T22:27:44.747Z,7.47
2023-01-13T22:32:47.910Z,7.60
2023-01-13T22:37:49.588Z,6.63
2023-01-13T22:42:51.290Z,13.10
2023-01-13T22:47:54.314Z,11.13
2023-01-13T22:52:56.023Z,15.57
2023-01-13T22:57:58.147Z,13.73
2023-01-13T23:03:01.171Z,8.37
2023-01-13T23:08:02.926Z,10.50
2023-01-13T23:13:04.602Z,9.07
2023-01-13T23:18:07.710Z,9.67
2023-01-13T23:23:09.400Z,7.63
2023-01-13T23:28:11.135Z,7.43
2023-01-13T23:33:14.382Z,4.10
2023-01-13T23:38:16.034Z,7.37
2023-01-13T23:43:17.733Z,6.87
2023-01-13T23:48:20.794Z,5.80
2023-01-13T23:53:22.470Z,6.20
2023-01-13T23:58:24.223Z,2.37
